Time,TemperatureF,DewpointF,PressureIn,WindDirection,WindDirectionDegrees,WindSpeedMPH,WindSpeedGustMPH,Humidity,HourlyPrecipIn,Conditions,Clouds,dailyrainin,SoftwareType,DateUTC
2013-07-10 08:49:00,63.7,58.8,30.37,East,80,8.0,8.0,84,0.00,,,0.00,Wunderground v.1.15,2013-07-10 07:49:00,
2013-07-10 08:50:00,63.7,58.8,30.37,ENE,74,8.0,8.0,84,0.00,,,0.00,Wunderground v.1.15,2013-07-10 07:50:00,
2013-07-10 08:51:00,63.7,58.8,30.37,ENE,66,8.0,8.0,84,0.00,,,0.00,Wunderground v.1.15,2013-07-10 07:51:00,
2013-07-10 08:53:00,63.8,59.2,30.37,NE,53,7.0,8.0,85,0.00,,,0.00,Wunderground v.1.15,2013-07-10 07:53:00,
2013-07-10 08:55:00,64.0,59.4,30.37,East,87,6.0,8.0,85,0.00,,,0.00,Wunderground v.1.15,2013-07-10 07:55:00,
2013-07-10 09:01:00,64.0,59.1,30.38,ENE,57,5.0,8.0,84,0.00,,,0.00,Wunderground v.1.15,2013-07-10 08:01:00,
2013-07-10 09:07:00,63.9,59.0,30.37,East,93,6.0,8.0,84,0.00,,,0.00,Wunderground v.1.15,2013-07-10 08:07:00,
2013-07-10 09:12:00,63.8,59.2,30.37,East,92,6.0,9.0,85,0.00,,,0.00,Wunderground v.1.15,2013-07-10 08:12:00,
2013-07-10 09:18:00,63.9,59.0,30.37,ENE,69,7.0,11.0,84,0.00,,,0.00,Wunderground v.1.15,2013-07-10 08:18:00,
2013-07-10 09:24:00,63.9,59.3,30.37,ENE,75,6.0,9.0,85,0.00,,,0.00,Wunderground v.1.15,2013-07-10 08:24:00,
2013-07-10 09:29:00,63.8,58.9,30.37,ENE,65,7.0,7.0,84,0.00,,,0.00,Wunderground v.1.15,2013-07-10 08:29:00,
2013-07-10 09:35:00,64.6,59.7,30.37,ENE,76,6.0,10.0,84,0.00,,,0.00,Wunderground v.1.15,2013-07-10 08:35:00,
2013-07-10 09:41:00,65.0,60.0,30.37,ENE,71,6.0,7.0,84,0.00,,,0.00,Wunderground v.1.15,2013-07-10 08:41:00,
2013-07-10 09:46:00,65.1,60.1,30.37,ENE,68,6.0,8.0,84,0.00,,,0.00,Wunderground v.1.15,2013-07-10 08:46:00,
2013-07-10 09:52:00,64.8,59.5,30.37,NNE,28,6.0,8.0,83,0.00,,,0.00,Wunderground v.1.15,2013-07-10 08:52:00,
2013-07-10 09:58:00,64.7,59.1,30.37,ENE,69,6.0,10.0,82,0.00,,,0.00,Wunderground v.1.15,2013-07-10 08:58:00,
2013-07-10 10:03:00,64.9,59.6,30.37,ESE,103,5.0,5.0,83,0.00,,,0.00,Wunderground v.1.15,2013-07-10 09:03:00,
2013-07-10 10:09:00,64.8,59.5,30.37,East,86,5.0,7.0,83,0.00,,,0.00,Wunderground v.1.15,2013-07-10 09:09:00,
2013-07-10 10:15:00,65.2,59.6,30.37,NE,56,5.0,10.0,82,0.00,,,0.00,Wunderground v.1.15,2013-07-10 09:15:00,
2013-07-10 10:20:00,65.2,59.6,30.37,ENE,74,5.0,7.0,82,0.00,,,0.00,Wunderground v.1.15,2013-07-10 09:20:00,
2013-07-10 10:26:00,65.2,59.9,30.37,North,5,5.0,8.0,83,0.00,,,0.00,Wunderground v.1.15,2013-07-10 09:26:00,
2013-07-10 10:32:00,65.6,60.0,30.37,NNE,13,4.0,5.0,82,0.00,,,0.00,Wunderground v.1.15,2013-07-10 09:32:00,
2013-07-10 10:38:00,65.9,59.9,30.37,ENE,76,5.0,8.0,81,0.00,,,0.00,Wunderground v.1.15,2013-07-10 09:38:00,
2013-07-10 10:43:00,66.0,60.0,30.37,NE,35,5.0,7.0,81,0.00,,,0.00,Wunderground v.1.15,2013-07-10 09:43:00,
2013-07-10 10:50:00,66.0,60.3,30.37,East,80,6.0,11.0,82,0.00,,,0.00,Wunderground v.1.15,2013-07-10 09:50:00,
2013-07-10 10:55:00,66.4,60.7,30.37,ENE,76,5.0,8.0,82,0.00,,,0.00,Wunderground v.1.15,2013-07-10 09:55:00,
2013-07-10 11:00:00,66.4,60.0,30.37,ENE,64,5.0,10.0,80,0.00,,,0.00,Wunderground v.1.15,2013-07-10 10:00:00,
2013-07-10 11:06:00,66.2,59.8,30.37,East,80,6.0,10.0,80,0.00,,,0.00,Wunderground v.1.15,2013-07-10 10:06:00,
2013-07-10 11:12:00,65.8,59.5,30.37,ENE,61,7.0,9.0,80,0.00,,,0.00,Wunderground v.1.15,2013-07-10 10:12:00,
2013-07-10 11:18:00,65.8,59.8,30.37,ENE,59,7.0,10.0,81,0.00,,,0.00,Wunderground v.1.15,2013-07-10 10:18:00,
2013-07-10 11:23:00,66.0,60.3,30.37,NE,53,6.0,7.0,82,0.00,,,0.00,Wunderground v.1.15,2013-07-10 10:23:00,
2013-07-10 11:30:00,66.4,60.4,30.37,NNE,25,5.0,6.0,81,0.00,,,0.00,Wunderground v.1.15,2013-07-10 10:30:00,
2013-07-10 11:35:00,66.7,60.3,30.37,ENE,78,5.0,10.0,80,0.00,,,0.00,Wunderground v.1.15,2013-07-10 10:35:00,
2013-07-10 11:40:00,66.4,60.7,30.37,NE,41,5.0,5.0,82,0.00,,,0.00,Wunderground v.1.15,2013-07-10 10:40:00,
2013-07-10 11:46:00,66.5,60.1,30.37,NE,44,5.0,11.0,80,0.00,,,0.00,Wunderground v.1.15,2013-07-10 10:46:00,
2013-07-10 11:51:00,66.6,60.2,30.37,East,80,5.0,6.0,80,0.00,,,0.00,Wunderground v.1.15,2013-07-10 10:51:00,
2013-07-10 11:57:00,66.7,60.7,30.37,ENE,67,5.0,6.0,81,0.00,,,0.00,Wunderground v.1.15,2013-07-10 10:57:00,
2013-07-10 12:02:00,67.2,60.8,30.37,ENE,69,5.0,9.0,80,0.00,,,0.00,Wunderground v.1.15,2013-07-10 11:02:00,
2013-07-10 12:08:00,67.2,60.1,30.37,ENE,57,5.0,9.0,78,0.00,,,0.00,Wunderground v.1.15,2013-07-10 11:08:00,
2013-07-10 12:14:00,67.2,60.5,30.37,NE,51,5.0,6.0,79,0.00,,,0.00,Wunderground v.1.15,2013-07-10 11:14:00,
2013-07-10 12:19:00,67.5,61.5,30.37,NNE,14,4.0,4.0,81,0.00,,,0.00,Wunderground v.1.15,2013-07-10 11:19:00,
2013-07-10 12:25:00,67.7,61.7,30.37,ENE,59,4.0,9.0,81,0.00,,,0.00,Wunderground v.1.15,2013-07-10 11:25:00,
2013-07-10 12:30:00,68.2,61.8,30.37,NNE,30,4.0,4.0,80,0.00,,,0.00,Wunderground v.1.15,2013-07-10 11:30:00,
2013-07-10 12:36:00,68.3,61.2,30.37,NE,56,4.0,6.0,78,0.00,,,0.00,Wunderground v.1.15,2013-07-10 11:36:00,
2013-07-10 12:42:00,68.1,61.7,30.37,NE,50,4.0,4.0,80,0.00,,,0.00,Wunderground v.1.15,2013-07-10 11:42:00,
2013-07-10 12:47:00,67.9,60.4,30.37,NE,55,4.0,6.0,77,0.00,,,0.00,Wunderground v.1.15,2013-07-10 11:47:00,
2013-07-10 12:53:00,68.2,61.1,30.37,ENE,63,4.0,5.0,78,0.00,,,0.00,Wunderground v.1.15,2013-07-10 11:53:00,
2013-07-10 13:00:00,68.0,60.5,30.36,ENE,69,4.0,5.0,77,0.00,,,0.00,Wunderground v.1.15,2013-07-10 12:00:00,
2013-07-10 13:05:00,68.2,61.4,30.36,ENE,65,4.0,5.0,79,0.00,,,0.00,Wunderground v.1.15,2013-07-10 12:05:00,
2013-07-10 13:10:00,68.1,61.3,30.36,NE,38,4.0,6.0,79,0.00,,,0.00,Wunderground v.1.15,2013-07-10 12:10:00,
2013-07-10 13:16:00,68.6,61.5,30.36,NE,34,4.0,6.0,78,0.00,,,0.00,Wunderground v.1.15,2013-07-10 12:16:00,
2013-07-10 13:21:00,68.6,61.5,30.36,NE,49,4.0,4.0,78,0.00,,,0.00,Wunderground v.1.15,2013-07-10 12:21:00,
2013-07-10 13:27:00,68.4,60.9,30.36,ENE,70,5.0,8.0,77,0.00,,,0.00,Wunderground v.1.15,2013-07-10 12:27:00,
2013-07-10 13:33:00,68.5,61.4,30.36,NE,56,5.0,6.0,78,0.00,,,0.00,Wunderground v.1.15,2013-07-10 12:33:00,
2013-07-10 13:40:00,68.6,61.5,30.36,NE,42,4.0,6.0,78,0.00,,,0.00,Wunderground v.1.15,2013-07-10 12:40:00,
2013-07-10 13:45:00,68.8,61.3,30.36,NE,44,4.0,5.0,77,0.00,,,0.00,Wunderground v.1.15,2013-07-10 12:45:00,
2013-07-10 13:50:00,68.9,62.1,30.36,NE,44,4.0,4.0,79,0.00,,,0.00,Wunderground v.1.15,2013-07-10 12:50:00,
2013-07-10 13:56:00,69.3,61.8,30.35,East,84,3.0,5.0,77,0.00,,,0.00,Wunderground v.1.15,2013-07-10 12:56:00,
2013-07-10 14:01:00,69.6,62.1,30.35,NNE,28,3.0,4.0,77,0.00,,,0.00,Wunderground v.1.15,2013-07-10 13:01:00,
2013-07-10 14:07:00,70.4,62.5,30.36,NE,49,3.0,6.0,76,0.00,,,0.00,Wunderground v.1.15,2013-07-10 13:07:00,
2013-07-10 14:12:00,70.6,63.0,30.36,ENE,61,3.0,5.0,77,0.00,,,0.00,Wunderground v.1.15,2013-07-10 13:12:00,
2013-07-10 14:18:00,70.7,62.0,30.36,ENE,63,4.0,7.0,74,0.00,,,0.00,Wunderground v.1.15,2013-07-10 13:18:00,
2013-07-10 14:24:00,70.7,62.4,30.35,ENE,62,4.0,4.0,75,0.00,,,0.00,Wunderground v.1.15,2013-07-10 13:24:00,
2013-07-10 14:29:00,70.6,61.9,30.35,East,84,3.0,6.0,74,0.00,,,0.00,Wunderground v.1.15,2013-07-10 13:29:00,
2013-07-10 14:35:00,70.0,61.3,30.35,ENE,77,5.0,6.0,74,0.00,,,0.00,Wunderground v.1.15,2013-07-10 13:35:00,
2013-07-10 14:41:00,69.6,60.9,30.35,East,83,5.0,6.0,74,0.00,,,0.00,Wunderground v.1.15,2013-07-10 13:41:00,
2013-07-10 14:47:00,69.8,61.9,30.35,East,82,5.0,7.0,76,0.00,,,0.00,Wunderground v.1.15,2013-07-10 13:47:00,
2013-07-10 14:52:00,69.7,61.4,30.35,ENE,75,5.0,6.0,75,0.00,,,0.00,Wunderground v.1.15,2013-07-10 13:52:00,
2013-07-10 14:58:00,69.4,61.5,30.35,ENE,63,5.0,9.0,76,0.00,,,0.00,Wunderground v.1.15,2013-07-10 13:58:00,
2013-07-10 15:04:00,69.2,61.3,30.35,East,82,5.0,9.0,76,0.00,,,0.00,Wunderground v.1.15,2013-07-10 14:04:00,
2013-07-10 15:09:00,69.1,61.2,30.35,East,88,6.0,6.0,76,0.00,,,0.00,Wunderground v.1.15,2013-07-10 14:09:00,
2013-07-10 15:15:00,69.3,61.4,30.35,East,84,6.0,9.0,76,0.00,,,0.00,Wunderground v.1.15,2013-07-10 14:15:00,
2013-07-10 15:20:00,69.2,62.0,30.35,ENE,78,5.0,9.0,78,0.00,,,0.00,Wunderground v.1.15,2013-07-10 14:20:00,
2013-07-10 15:26:00,69.4,61.9,30.35,ESE,114,5.0,9.0,77,0.00,,,0.00,Wunderground v.1.15,2013-07-10 14:26:00,
2013-07-10 15:31:00,69.6,61.3,30.35,East,88,5.0,5.0,75,0.00,,,0.00,Wunderground v.1.15,2013-07-10 14:31:00,
2013-07-10 15:37:00,69.8,61.9,30.35,East,80,5.0,7.0,76,0.00,,,0.00,Wunderground v.1.15,2013-07-10 14:37:00,
2013-07-10 15:42:00,69.8,61.5,30.34,East,95,5.0,7.0,75,0.00,,,0.00,Wunderground v.1.15,2013-07-10 14:42:00,
2013-07-10 15:48:00,69.9,62.0,30.34,East,80,5.0,8.0,76,0.00,,,0.00,Wunderground v.1.15,2013-07-10 14:48:00,
2013-07-10 15:53:00,70.2,61.5,30.34,ENE,78,4.0,6.0,74,0.00,,,0.00,Wunderground v.1.15,2013-07-10 14:53:00,
2013-07-10 15:59:00,70.1,61.4,30.34,East,84,5.0,5.0,74,0.00,,,0.00,Wunderground v.1.15,2013-07-10 14:59:00,
2013-07-10 16:05:00,70.2,61.9,30.34,East,83,5.0,9.0,75,0.00,,,0.00,Wunderground v.1.15,2013-07-10 15:05:00,
2013-07-10 16:10:00,70.3,62.0,30.34,East,83,5.0,6.0,75,0.00,,,0.00,Wunderground v.1.15,2013-07-10 15:10:00,
2013-07-10 16:16:00,70.0,61.7,30.34,East,82,5.0,6.0,75,0.00,,,0.00,Wunderground v.1.15,2013-07-10 15:16:00,
2013-07-10 16:21:00,69.8,61.5,30.34,East,84,5.0,6.0,75,0.00,,,0.00,Wunderground v.1.15,2013-07-10 15:21:00,
2013-07-10 16:27:00,69.7,60.3,30.34,ENE,61,5.0,6.0,72,0.00,,,0.00,Wunderground v.1.15,2013-07-10 15:27:00,
2013-07-10 16:32:00,69.7,60.7,30.34,ENE,78,4.0,4.0,73,0.00,,,0.00,Wunderground v.1.15,2013-07-10 15:32:00,
2013-07-10 16:38:00,70.0,61.7,30.34,ENE,78,3.0,4.0,75,0.00,,,0.00,Wunderground v.1.15,2013-07-10 15:38:00,
2013-07-10 16:44:00,69.8,60.4,30.34,ENE,74,4.0,6.0,72,0.00,,,0.00,Wunderground v.1.15,2013-07-10 15:44:00,
2013-07-10 16:50:00,69.8,60.4,30.33,ENE,78,4.0,4.0,72,0.00,,,0.00,Wunderground v.1.15,2013-07-10 15:50:00,
2013-07-10 16:55:00,69.8,60.8,30.34,ENE,77,4.0,6.0,73,0.00,,,0.00,Wunderground v.1.15,2013-07-10 15:55:00,
2013-07-10 17:14:00,69.7,60.7,30.33,East,80,4.0,4.0,73,0.00,,,0.00,Wunderground v.1.15,2013-07-10 16:14:00,
2013-07-10 17:20:00,69.6,59.8,30.33,East,91,4.0,5.0,71,0.00,,,0.00,Wunderground v.1.15,2013-07-10 16:20:00,
2013-07-10 17:26:00,69.7,60.3,30.33,East,92,3.0,6.0,72,0.00,,,0.00,Wunderground v.1.15,2013-07-10 16:26:00,
2013-07-10 17:31:00,69.6,60.2,30.33,East,92,3.0,6.0,72,0.00,,,0.00,Wunderground v.1.15,2013-07-10 16:31:00,
2013-07-10 17:37:00,70.0,60.2,30.33,East,84,3.0,4.0,71,0.00,,,0.00,Wunderground v.1.15,2013-07-10 16:37:00,
2013-07-10 17:43:00,70.5,61.0,30.33,ENE,71,3.0,5.0,72,0.00,,,0.00,Wunderground v.1.15,2013-07-10 16:43:00,
2013-07-10 17:48:00,71.1,62.0,30.33,ENE,61,3.0,4.0,73,0.00,,,0.00,Wunderground v.1.15,2013-07-10 16:48:00,
2013-07-10 17:54:00,71.1,60.8,30.33,East,99,2.0,4.0,70,0.00,,,0.00,Wunderground v.1.15,2013-07-10 16:54:00,
2013-07-10 17:59:00,70.6,60.3,30.32,NE,51,3.0,4.0,70,0.00,,,0.00,Wunderground v.1.15,2013-07-10 16:59:00,
2013-07-10 18:05:00,70.7,60.4,30.32,WSW,256,4.0,6.0,70,0.00,,,0.00,Wunderground v.1.15,2013-07-10 17:05:00,
2013-07-10 18:10:00,70.7,60.4,30.32,East,84,2.0,4.0,70,0.00,,,0.00,Wunderground v.1.15,2013-07-10 17:10:00,
2013-07-10 18:16:00,70.0,59.8,30.32,East,88,3.0,4.0,70,0.00,,,0.00,Wunderground v.1.15,2013-07-10 17:16:00,
2013-07-10 18:20:00,69.7,59.9,30.32,East,94,3.0,3.0,71,0.00,,,0.00,Wunderground v.1.15,2013-07-10 17:20:00,
2013-07-10 18:26:00,69.7,60.3,30.32,East,93,2.0,5.0,72,0.00,,,0.00,Wunderground v.1.15,2013-07-10 17:26:00,
2013-07-10 18:32:00,69.9,60.1,30.32,East,93,2.0,2.0,71,0.00,,,0.00,Wunderground v.1.15,2013-07-10 17:32:00,
2013-07-10 18:38:00,70.4,60.5,30.32,East,83,2.0,6.0,71,0.00,,,0.00,Wunderground v.1.15,2013-07-10 17:38:00,
2013-07-10 18:43:00,70.2,59.6,30.32,East,86,4.0,5.0,69,0.00,,,0.00,Wunderground v.1.15,2013-07-10 17:43:00,
2013-07-10 18:49:00,69.9,59.7,30.32,East,84,3.0,5.0,70,0.00,,,0.00,Wunderground v.1.15,2013-07-10 17:49:00,
2013-07-10 18:54:00,69.8,59.6,30.32,ENE,71,3.0,5.0,70,0.00,,,0.00,Wunderground v.1.15,2013-07-10 17:54:00,
2013-07-10 19:00:00,69.7,59.5,30.32,ENE,63,4.0,4.0,70,0.00,,,0.00,Wunderground v.1.15,2013-07-10 18:00:00,
2013-07-10 19:06:00,69.9,59.7,30.32,ENE,65,3.0,4.0,70,0.00,,,0.00,Wunderground v.1.15,2013-07-10 18:06:00,
2013-07-10 19:12:00,69.9,59.7,30.32,East,94,2.0,4.0,70,0.00,,,0.00,Wunderground v.1.15,2013-07-10 18:12:00,
2013-07-10 19:17:00,69.8,59.2,30.32,East,90,2.0,4.0,69,0.00,,,0.00,Wunderground v.1.15,2013-07-10 18:17:00,
2013-07-10 19:23:00,69.7,59.1,30.32,East,80,2.0,4.0,69,0.00,,,0.00,Wunderground v.1.15,2013-07-10 18:23:00,
2013-07-10 19:29:00,69.5,59.3,30.32,East,84,2.0,2.0,70,0.00,,,0.00,Wunderground v.1.15,2013-07-10 18:29:00,
2013-07-10 19:34:00,69.4,59.2,30.32,East,85,2.0,3.0,70,0.00,,,0.00,Wunderground v.1.15,2013-07-10 18:34:00,
2013-07-10 19:40:00,69.3,59.5,30.32,East,84,2.0,3.0,71,0.00,,,0.00,Wunderground v.1.15,2013-07-10 18:40:00,
2013-07-10 19:45:00,69.2,59.4,30.32,East,86,2.0,3.0,71,0.00,,,0.00,Wunderground v.1.15,2013-07-10 18:45:00,
2013-07-10 19:50:00,69.1,59.3,30.31,East,84,1.0,2.0,71,0.00,,,0.00,Wunderground v.1.15,2013-07-10 18:50:00,
2013-07-10 19:56:00,69.0,59.2,30.31,East,82,1.0,4.0,71,0.00,,,0.00,Wunderground v.1.15,2013-07-10 18:56:00,
2013-07-10 20:02:00,68.7,59.3,30.32,East,80,2.0,4.0,72,0.00,,,0.00,Wunderground v.1.15,2013-07-10 19:02:00,
2013-07-10 20:09:00,68.5,59.5,30.32,East,90,2.0,4.0,73,0.00,,,0.00,Wunderground v.1.15,2013-07-10 19:09:00,
2013-07-10 20:14:00,68.3,59.7,30.32,East,80,3.0,6.0,74,0.00,,,0.00,Wunderground v.1.15,2013-07-10 19:14:00,
2013-07-10 20:20:00,67.8,59.6,30.32,East,84,4.0,6.0,75,0.00,,,0.00,Wunderground v.1.15,2013-07-10 19:20:00,
2013-07-10 20:25:00,67.4,59.2,30.32,East,94,5.0,6.0,75,0.00,,,0.00,Wunderground v.1.15,2013-07-10 19:25:00,
2013-07-10 20:31:00,67.0,59.2,30.32,East,87,5.0,8.0,76,0.00,,,0.00,Wunderground v.1.15,2013-07-10 19:31:00,
2013-07-10 20:37:00,66.7,59.3,30.32,East,82,4.0,8.0,77,0.00,,,0.00,Wunderground v.1.15,2013-07-10 19:37:00,
2013-07-10 20:42:00,66.4,59.3,30.32,ENE,74,4.0,5.0,78,0.00,,,0.00,Wunderground v.1.15,2013-07-10 19:42:00,